Time;durP1;ratioP1;P1;durP2;ratioP2;P2;SDS_P1;SDS_P2;PMS_P1;PMS_P2;Temp;Humidity;BMP_temperature;BMP_pressure;BME280_temperature;BME280_humidity;BME280_pressure;Samples;Min_cycle;Max_cycle;Signal;HPM_P1;HPM_P2
2022/01/15 00:02:18;;;;;;;17.20;9.15;;;;;;;;;;4930885;29;20569;-62
2022/01/15 00:04:45;;;;;;;13.55;7.40;;;;;;;;;;4930368;29;20071;-62
2022/01/15 00:07:11;;;;;;;18.35;9.32;;;;;;;;;;4934544;29;20048;-61
2022/01/15 00:09:39;;;;;;;20.10;9.20;;;;;;;;;;4926920;29;20079;-62
2022/01/15 00:12:06;;;;;;;15.05;8.00;;;;;;;;;;4932233;29;20380;-62
2022/01/15 00:14:37;;;;;;;16.80;8.50;;;;;;;;;;4931423;29;20079;-62
2022/01/15 00:17:07;;;;;;;22.02;10.55;;;;;;;;;;4927432;29;20051;-61
2022/01/15 00:19:42;;;;;;;18.38;9.05;;;;;;;;;;4930758;29;20479;-60
2022/01/15 00:22:10;;;;;;;20.00;8.65;;;;;;;;;;4934199;29;20080;-62
2022/01/15 00:24:37;;;;;;;18.40;8.70;;;;;;;;;;4931723;29;20131;-61
2022/01/15 00:27:05;;;;;;;13.00;7.45;;;;;;;;;;4928846;29;20090;-62
2022/01/15 00:29:32;;;;;;;15.70;7.30;;;;;;;;;;4932668;29;20134;-62
2022/01/15 00:31:58;;;;;;;17.63;9.35;;;;;;;;;;4929352;29;20072;-62
2022/01/15 00:34:26;;;;;;;16.90;8.15;;;;;;;;;;4932624;29;20047;-63
2022/01/15 00:36:53;;;;;;;17.90;8.38;;;;;;;;;;4932164;29;20071;-61
2022/01/15 00:39:19;;;;;;;16.58;8.57;;;;;;;;;;4932050;29;20134;-61
2022/01/15 00:41:46;;;;;;;16.15;7.85;;;;;;;;;;4931645;29;20079;-62
2022/01/15 00:44:12;;;;;;;18.90;8.85;;;;;;;;;;4932828;29;20111;-63
2022/01/15 00:46:39;;;;;;;19.27;8.95;;;;;;;;;;4932399;29;20175;-63
2022/01/15 00:49:06;;;;;;;16.05;8.20;;;;;;;;;;4928081;29;20151;-62
2022/01/15 00:51:34;;;;;;;16.27;7.60;;;;;;;;;;4930967;29;20083;-62
2022/01/15 00:54:00;;;;;;;15.68;8.18;;;;;;;;;;4913093;29;20104;-62
2022/01/15 00:56:27;;;;;;;18.92;10.23;;;;;;;;;;4930822;29;20130;-62
2022/01/15 00:58:53;;;;;;;34.10;16.10;;;;;;;;;;4930148;29;20147;-60
2022/01/15 01:01:23;;;;;;;21.45;11.18;;;;;;;;;;4930063;29;20058;-62
2022/01/15 01:03:50;;;;;;;22.15;11.25;;;;;;;;;;4932713;29;20079;-62
2022/01/15 01:06:18;;;;;;;20.05;9.82;;;;;;;;;;4928693;29;20082;-62
2022/01/15 01:08:46;;;;;;;18.58;9.25;;;;;;;;;;4931380;29;20139;-62
2022/01/15 01:11:14;;;;;;;19.63;8.15;;;;;;;;;;4932006;29;20080;-62
2022/01/15 01:24:46;;;;;;;18.80;9.10;;;;;;;;;;4928954;29;20544;-62
2022/01/15 01:27:18;;;;;;;14.13;8.50;;;;;;;;;;4927816;29;20131;-62
2022/01/15 01:30:03;;;;;;;15.55;7.90;;;;;;;;;;4929062;29;21608;-62
2022/01/15 01:32:42;;;;;;;17.52;8.30;;;;;;;;;;4931168;29;20056;-62
2022/01/15 01:35:13;;;;;;;16.27;8.77;;;;;;;;;;4931729;29;20505;-62
2022/01/15 01:37:44;;;;;;;14.18;6.93;;;;;;;;;;4928896;29;20489;-63
2022/01/15 01:40:23;;;;;;;15.75;7.03;;;;;;;;;;4940519;29;20055;-62
2022/01/15 01:43:00;;;;;;;16.73;8.02;;;;;;;;;;4929244;29;20389;-62
2022/01/15 01:45:26;;;;;;;18.40;7.85;;;;;;;;;;4929846;29;20711;-63
2022/01/15 01:47:53;;;;;;;15.10;8.20;;;;;;;;;;4926706;29;20107;-62
2022/01/15 01:50:21;;;;;;;17.20;8.05;;;;;;;;;;4928773;29;20127;-62
2022/01/15 01:52:49;;;;;;;17.50;8.10;;;;;;;;;;4931700;29;20078;-62
2022/01/15 01:55:19;;;;;;;20.30;8.45;;;;;;;;;;4928071;29;20126;-63
2022/01/15 01:57:46;;;;;;;18.63;8.45;;;;;;;;;;4926633;29;20062;-61
2022/01/15 02:00:15;;;;;;;21.30;8.05;;;;;;;;;;4933923;29;20465;-62
2022/01/15 02:02:42;;;;;;;16.80;7.43;;;;;;;;;;4930166;29;20079;-61
2022/01/15 02:05:10;;;;;;;16.52;7.43;;;;;;;;;;4928469;29;20715;-62
2022/01/15 02:07:36;;;;;;;18.67;9.07;;;;;;;;;;4928234;29;20086;-62
2022/01/15 02:10:05;;;;;;;19.20;7.85;;;;;;;;;;4926420;29;20102;-63
2022/01/15 02:12:33;;;;;;;19.50;8.85;;;;;;;;;;4931966;29;20055;-63
2022/01/15 02:15:05;;;;;;;17.15;8.68;;;;;;;;;;4924854;29;20486;-63
2022/01/15 02:17:32;;;;;;;18.00;8.15;;;;;;;;;;4922788;29;20569;-62
2022/01/15 02:20:23;;;;;;;16.95;8.25;;;;;;;;;;4923889;29;20072;-62
2022/01/15 02:25:42;;;;;;;13.48;8.43;;;;;;;;;;4921239;29;20602;-62
2022/01/15 02:28:09;;;;;;;16.83;7.57;;;;;;;;;;4923922;29;20118;-62
2022/01/15 02:30:36;;;;;;;19.73;8.20;;;;;;;;;;4928907;29;20083;-62
2022/01/15 02:33:02;;;;;;;15.15;7.15;;;;;;;;;;4929783;29;20130;-60
2022/01/15 02:35:30;;;;;;;14.95;7.57;;;;;;;;;;4926648;29;20134;-62
2022/01/15 02:38:02;;;;;;;19.20;7.78;;;;;;;;;;4928639;29;20136;-62
2022/01/15 02:40:28;;;;;;;19.27;8.18;;;;;;;;;;4928533;29;20154;-62
2022/01/15 02:42:56;;;;;;;23.65;9.48;;;;;;;;;;4924262;29;20134;-62
2022/01/15 02:45:25;;;;;;;17.77;8.98;;;;;;;;;;4928342;29;20052;-62
2022/01/15 02:48:03;;;;;;;19.58;8.40;;;;;;;;;;4927771;29;20058;-61
2022/01/15 02:50:31;;;;;;;17.40;8.15;;;;;;;;;;4928981;29;20087;-62
2022/01/15 02:53:05;;;;;;;21.20;10.20;;;;;;;;;;4931712;29;20087;-62
2022/01/15 02:55:32;;;;;;;17.13;8.27;;;;;;;;;;4925045;29;20131;-62
2022/01/15 02:57:58;;;;;;;21.33;8.43;;;;;;;;;;4924799;29;20075;-62
2022/01/15 03:00:26;;;;;;;18.88;8.80;;;;;;;;;;4930102;29;20079;-60
2022/01/15 03:02:52;;;;;;;17.70;7.88;;;;;;;;;;4928510;29;20130;-62
2022/01/15 03:05:20;;;;;;;19.25;8.88;;;;;;;;;;4926959;29;20826;-62
2022/01/15 03:07:48;;;;;;;17.63;8.02;;;;;;;;;;4929736;29;20047;-62
2022/01/15 03:10:14;;;;;;;17.70;8.05;;;;;;;;;;4924665;29;20544;-62
2022/01/15 03:12:41;;;;;;;17.55;8.98;;;;;;;;;;4925063;29;20052;-62
2022/01/15 03:15:08;;;;;;;17.55;8.20;;;;;;;;;;4923469;29;20080;-62
2022/01/15 03:17:36;;;;;;;17.08;7.88;;;;;;;;;;4930508;29;20078;-62
2022/01/15 03:20:05;;;;;;;18.67;8.02;;;;;;;;;;4924021;29;20134;-62
2022/01/15 03:22:31;;;;;;;17.83;8.05;;;;;;;;;;4925948;29;20102;-59
2022/01/15 03:24:59;;;;;;;16.83;8.57;;;;;;;;;;4927074;29;20071;-62
2022/01/15 03:27:26;;;;;;;14.90;7.80;;;;;;;;;;4920802;29;20479;-62
2022/01/15 03:29:52;;;;;;;17.92;8.13;;;;;;;;;;4924503;29;20078;-62
2022/01/15 03:32:19;;;;;;;17.92;8.57;;;;;;;;;;4929097;29;20150;-62
2022/01/15 03:34:46;;;;;;;17.05;7.85;;;;;;;;;;4928396;29;20139;-62
2022/01/15 03:37:13;;;;;;;13.48;6.65;;;;;;;;;;4928375;29;20075;-62
2022/01/15 03:39:39;;;;;;;15.57;7.35;;;;;;;;;;4928073;29;20079;-61
2022/01/15 03:42:11;;;;;;;17.63;7.72;;;;;;;;;;4922030;29;20155;-61
2022/01/15 03:44:40;;;;;;;18.67;8.82;;;;;;;;;;4925448;29;20108;-62
2022/01/15 03:47:07;;;;;;;18.10;8.40;;;;;;;;;;4929783;29;20087;-62
2022/01/15 03:49:33;;;;;;;17.73;8.25;;;;;;;;;;4921689;29;20213;-62
2022/01/15 03:52:00;;;;;;;21.98;10.75;;;;;;;;;;4926656;29;20128;-62
2022/01/15 03:54:26;;;;;;;15.18;8.43;;;;;;;;;;4926597;29;20082;-62
2022/01/15 03:56:53;;;;;;;18.38;8.50;;;;;;;;;;4927005;29;20090;-62
2022/01/15 03:59:21;;;;;;;19.95;9.38;;;;;;;;;;4929280;29;20154;-62
2022/01/15 04:01:47;;;;;;;19.90;9.63;;;;;;;;;;4925667;29;20138;-62
2022/01/15 04:04:14;;;;;;;18.67;9.40;;;;;;;;;;4929115;29;20142;-62
2022/01/15 04:06:44;;;;;;;20.08;9.18;;;;;;;;;;4929242;29;20135;-62
2022/01/15 04:09:11;;;;;;;18.70;9.23;;;;;;;;;;4929288;29;20075;-62
2022/01/15 04:11:38;;;;;;;16.30;8.43;;;;;;;;;;4922711;29;20707;-61
2022/01/15 04:14:05;;;;;;;17.77;8.65;;;;;;;;;;4935958;29;20523;-62
2022/01/15 04:16:33;;;;;;;19.92;9.27;;;;;;;;;;4929141;29;20083;-61
2022/01/15 04:19:01;;;;;;;18.50;8.02;;;;;;;;;;4925892;29;20075;-62
2022/01/15 04:21:27;;;;;;;16.67;7.95;;;;;;;;;;4924976;29;20184;-60
2022/01/15 04:23:54;;;;;;;18.08;9.32;;;;;;;;;;4929513;29;20442;-62
2022/01/15 04:26:25;;;;;;;16.65;8.98;;;;;;;;;;4928004;29;20086;-61
2022/01/15 04:28:52;;;;;;;20.13;8.85;;;;;;;;;;4923502;29;20051;-62
2022/01/15 04:31:19;;;;;;;18.25;9.60;;;;;;;;;;4933927;29;20450;-62
2022/01/15 04:33:47;;;;;;;18.17;8.77;;;;;;;;;;4928281;29;20135;-62
2022/01/15 04:36:14;;;;;;;18.42;7.90;;;;;;;;;;4903035;29;20071;-62
2022/01/15 04:38:42;;;;;;;15.77;7.63;;;;;;;;;;4931344;29;20142;-62
2022/01/15 04:41:09;;;;;;;18.65;8.75;;;;;;;;;;4928488;29;20126;-62
2022/01/15 04:43:36;;;;;;;17.50;8.30;;;;;;;;;;4930019;29;20094;-61
2022/01/15 04:46:03;;;;;;;17.65;9.40;;;;;;;;;;4930313;29;20087;-62
2022/01/15 04:48:30;;;;;;;20.02;9.20;;;;;;;;;;4909232;29;20140;-62
2022/01/15 04:50:58;;;;;;;20.08;7.97;;;;;;;;;;4913337;29;20102;-62
2022/01/15 04:53:24;;;;;;;15.00;7.68;;;;;;;;;;4912373;29;20064;-62
2022/01/15 04:55:51;;;;;;;17.92;8.27;;;;;;;;;;4907154;29;20124;-62
2022/01/15 04:58:17;;;;;;;18.70;8.30;;;;;;;;;;4909881;29;20079;-62
2022/01/15 05:00:44;;;;;;;16.83;8.15;;;;;;;;;;4913142;29;20075;-62
2022/01/15 05:03:11;;;;;;;30.35;12.32;;;;;;;;;;4909476;29;20135;-62
2022/01/15 05:05:37;;;;;;;22.60;10.65;;;;;;;;;;4915611;29;20090;-61
2022/01/15 05:08:06;;;;;;;24.73;9.32;;;;;;;;;;4904875;29;20091;-62
2022/01/15 05:10:32;;;;;;;20.38;10.05;;;;;;;;;;4908941;29;20465;-59
2022/01/15 05:13:01;;;;;;;15.68;8.93;;;;;;;;;;4912562;29;20075;-62
2022/01/15 05:15:28;;;;;;;16.90;8.50;;;;;;;;;;4911825;29;20163;-62
2022/01/15 05:17:54;;;;;;;20.27;8.80;;;;;;;;;;4912026;29;20770;-61
2022/01/15 05:20:22;;;;;;;17.85;9.23;;;;;;;;;;4906072;29;20091;-62
2022/01/15 05:22:49;;;;;;;16.27;7.70;;;;;;;;;;4911531;29;20417;-62
2022/01/15 05:25:18;;;;;;;16.45;7.82;;;;;;;;;;4919496;29;20128;-62
2022/01/15 05:27:45;;;;;;;17.42;8.40;;;;;;;;;;4910718;29;20044;-62
2022/01/15 05:30:13;;;;;;;15.95;8.15;;;;;;;;;;4909945;29;20123;-62
2022/01/15 05:32:39;;;;;;;15.38;7.85;;;;;;;;;;4913754;29;20094;-61
2022/01/15 05:35:06;;;;;;;15.27;7.80;;;;;;;;;;4912253;29;20076;-61
2022/01/15 05:37:33;;;;;;;20.73;9.00;;;;;;;;;;4912018;29;20127;-62
2022/01/15 05:39:59;;;;;;;23.08;9.07;;;;;;;;;;4911897;29;20086;-62
2022/01/15 05:42:27;;;;;;;20.42;9.32;;;;;;;;;;4913406;29;20738;-62
2022/01/15 05:44:54;;;;;;;20.35;8.13;;;;;;;;;;4906855;29;20127;-62
2022/01/15 05:47:20;;;;;;;15.43;8.50;;;;;;;;;;4911953;29;20090;-62
2022/01/15 05:49:47;;;;;;;16.33;8.85;;;;;;;;;;4925490;29;20445;-62
2022/01/15 05:52:13;;;;;;;16.30;8.80;;;;;;;;;;4928473;29;20134;-62
2022/01/15 05:54:40;;;;;;;17.15;8.05;;;;;;;;;;4930455;29;20126;-62
2022/01/15 05:57:07;;;;;;;17.83;7.78;;;;;;;;;;4929209;29;20463;-61
2022/01/15 05:59:35;;;;;;;17.05;7.50;;;;;;;;;;4932047;29;20159;-62
2022/01/15 06:02:01;;;;;;;21.00;9.32;;;;;;;;;;4929021;29;20085;-62
2022/01/15 06:04:28;;;;;;;15.85;8.20;;;;;;;;;;4928959;29;20082;-62
2022/01/15 06:06:54;;;;;;;15.25;7.82;;;;;;;;;;4931296;29;20119;-62
2022/01/15 06:09:21;;;;;;;19.70;8.02;;;;;;;;;;4931215;29;20162;-62
2022/01/15 06:11:47;;;;;;;16.10;8.43;;;;;;;;;;4923589;29;20083;-61
2022/01/15 06:14:15;;;;;;;19.45;8.43;;;;;;;;;;4926700;29;20063;-62
2022/01/15 06:16:43;;;;;;;17.50;8.02;;;;;;;;;;4931412;29;20075;-61
2022/01/15 06:19:09;;;;;;;17.02;8.18;;;;;;;;;;4931849;29;20075;-62
2022/01/15 06:21:36;;;;;;;18.15;9.23;;;;;;;;;;4928295;29;20196;-62
2022/01/15 06:24:02;;;;;;;18.33;7.82;;;;;;;;;;4933159;29;20075;-62
2022/01/15 06:26:29;;;;;;;16.55;8.65;;;;;;;;;;4925604;29;20142;-62
2022/01/15 06:28:55;;;;;;;15.38;7.78;;;;;;;;;;4928912;29;20135;-61
2022/01/15 06:31:22;;;;;;;19.20;9.00;;;;;;;;;;4927119;29;20131;-62
2022/01/15 06:33:50;;;;;;;18.92;8.75;;;;;;;;;;4934921;29;20071;-62
2022/01/15 06:36:16;;;;;;;23.95;10.05;;;;;;;;;;4931086;29;20395;-62
2022/01/15 06:38:43;;;;;;;15.68;8.30;;;;;;;;;;4942301;29;20460;-61
2022/01/15 06:41:09;;;;;;;20.73;8.35;;;;;;;;;;4926284;29;21089;-60
2022/01/15 06:43:36;;;;;;;16.52;9.27;;;;;;;;;;4927700;29;20143;-62
2022/01/15 06:46:02;;;;;;;73.47;20.70;;;;;;;;;;4931882;29;20078;-62
2022/01/15 06:48:30;;;;;;;51.60;15.18;;;;;;;;;;4929399;29;20091;-62
2022/01/15 06:50:58;;;;;;;43.72;13.45;;;;;;;;;;4924069;29;20056;-62
2022/01/15 06:53:25;;;;;;;26.95;11.02;;;;;;;;;;4926408;29;20049;-62
2022/01/15 06:55:52;;;;;;;31.98;13.20;;;;;;;;;;4927030;29;20056;-61
2022/01/15 06:58:19;;;;;;;32.63;12.30;;;;;;;;;;4926425;29;20056;-62
2022/01/15 07:00:46;;;;;;;31.17;12.45;;;;;;;;;;4926744;29;20126;-61
2022/01/15 07:03:12;;;;;;;34.42;13.40;;;;;;;;;;4926107;29;20131;-62
2022/01/15 07:05:39;;;;;;;27.90;11.68;;;;;;;;;;4924748;29;20473;-61
2022/01/15 07:08:07;;;;;;;27.60;11.98;;;;;;;;;;4925684;29;20143;-62
2022/01/15 07:10:34;;;;;;;34.17;12.88;;;;;;;;;;4927529;29;20071;-61
2022/01/15 07:13:00;;;;;;;41.30;13.80;;;;;;;;;;4925686;29;20047;-58
2022/01/15 07:15:27;;;;;;;32.05;13.43;;;;;;;;;;4926606;29;20082;-60
2022/01/15 07:17:54;;;;;;;32.20;13.63;;;;;;;;;;4925548;29;20070;-62
2022/01/15 07:20:20;;;;;;;35.97;15.02;;;;;;;;;;4927226;29;20048;-62
2022/01/15 07:22:47;;;;;;;36.88;14.20;;;;;;;;;;4925196;29;20292;-62
2022/01/15 07:25:15;;;;;;;36.55;15.77;;;;;;;;;;4910203;29;20127;-62
2022/01/15 07:27:42;;;;;;;39.72;15.60;;;;;;;;;;4923049;29;20099;-62
2022/01/15 07:30:10;;;;;;;37.03;13.48;;;;;;;;;;4928600;29;20044;-62
2022/01/15 07:32:37;;;;;;;36.45;15.00;;;;;;;;;;4911987;29;20524;-62
2022/01/15 07:35:05;;;;;;;45.13;18.15;;;;;;;;;;4925941;29;20131;-62
2022/01/15 07:37:31;;;;;;;50.15;16.90;;;;;;;;;;4926014;29;20540;-62
2022/01/15 07:39:58;;;;;;;37.40;14.27;;;;;;;;;;4924993;29;20083;-62
2022/01/15 07:42:28;;;;;;;44.45;17.13;;;;;;;;;;4929105;29;20071;-62
2022/01/15 07:44:54;;;;;;;41.28;16.17;;;;;;;;;;4922707;29;20056;-61
2022/01/15 07:47:21;;;;;;;53.70;18.10;;;;;;;;;;4925700;29;20147;-62
2022/01/15 07:49:47;;;;;;;48.45;17.52;;;;;;;;;;4922584;29;20159;-62
2022/01/15 07:52:14;;;;;;;40.42;15.13;;;;;;;;;;4925813;29;20142;-62
2022/01/15 07:54:40;;;;;;;38.30;16.30;;;;;;;;;;4930294;29;20115;-62
2022/01/15 07:57:07;;;;;;;39.72;18.13;;;;;;;;;;4925590;29;20127;-62
2022/01/15 07:59:35;;;;;;;48.53;20.08;;;;;;;;;;4922909;29;20453;-60
2022/01/15 08:02:01;;;;;;;41.38;17.92;;;;;;;;;;4925814;29;20083;-62
2022/01/15 08:04:28;;;;;;;44.80;19.25;;;;;;;;;;4926280;29;20165;-61
2022/01/15 08:06:54;;;;;;;48.10;20.30;;;;;;;;;;4925854;29;20096;-62
2022/01/15 08:09:21;;;;;;;42.63;20.20;;;;;;;;;;4923776;29;20138;-62
2022/01/15 08:11:47;;;;;;;46.72;16.88;;;;;;;;;;4924219;29;20460;-62
2022/01/15 08:14:14;;;;;;;43.13;17.25;;;;;;;;;;4927719;29;20139;-61
2022/01/15 08:16:42;;;;;;;40.80;16.02;;;;;;;;;;4929872;28;20098;-62
2022/01/15 08:19:08;;;;;;;49.15;18.23;;;;;;;;;;4931011;29;20130;-63
2022/01/15 08:21:35;;;;;;;43.65;19.27;;;;;;;;;;4925741;29;20153;-62
2022/01/15 08:24:01;;;;;;;65.80;23.33;;;;;;;;;;4929368;29;20466;-59
2022/01/15 08:26:28;;;;;;;45.90;19.52;;;;;;;;;;4929154;29;20102;-61
2022/01/15 08:28:56;;;;;;;51.38;20.30;;;;;;;;;;4930627;29;20047;-62
2022/01/15 08:31:22;;;;;;;38.55;18.60;;;;;;;;;;4926390;29;20166;-62
2022/01/15 08:33:50;;;;;;;39.15;16.88;;;;;;;;;;4928034;29;20076;-62
2022/01/15 08:36:17;;;;;;;35.67;17.80;;;;;;;;;;4929342;29;20147;-62
2022/01/15 08:38:44;;;;;;;40.00;17.83;;;;;;;;;;4930518;29;20066;-62
2022/01/15 08:41:12;;;;;;;47.47;18.50;;;;;;;;;;4929335;29;20052;-61
2022/01/15 08:43:39;;;;;;;43.70;17.23;;;;;;;;;;4926719;29;20062;-62
2022/01/15 08:46:06;;;;;;;42.35;18.52;;;;;;;;;;4910484;29;20135;-62
2022/01/15 08:48:32;;;;;;;38.78;17.27;;;;;;;;;;4928210;29;20075;-62
2022/01/15 08:51:00;;;;;;;36.85;17.40;;;;;;;;;;4927725;29;20076;-62
2022/01/15 08:53:27;;;;;;;76.55;30.33;;;;;;;;;;4928847;29;20082;-60
2022/01/15 08:55:54;;;;;;;62.05;26.30;;;;;;;;;;4924245;29;20458;-62
2022/01/15 08:58:20;;;;;;;70.93;29.80;;;;;;;;;;4927348;29;20465;-62
2022/01/15 09:00:47;;;;;;;41.75;19.02;;;;;;;;;;4927493;29;20090;-60
2022/01/15 09:03:14;;;;;;;42.25;18.08;;;;;;;;;;4926239;29;20127;-61
2022/01/15 09:05:41;;;;;;;34.00;16.42;;;;;;;;;;4922311;29;20485;-62
2022/01/15 09:08:12;;;;;;;51.20;21.58;;;;;;;;;;4931722;29;20465;-61
2022/01/15 09:10:41;;;;;;;52.15;24.25;;;;;;;;;;4928604;29;20083;-62
2022/01/15 09:13:08;;;;;;;46.67;20.63;;;;;;;;;;4928586;29;20052;-63
2022/01/15 09:15:35;;;;;;;40.58;18.10;;;;;;;;;;4925148;29;20150;-62
2022/01/15 09:18:02;;;;;;;51.53;22.80;;;;;;;;;;4926944;29;20079;-61
2022/01/15 09:20:29;;;;;;;76.43;29.30;;;;;;;;;;4930429;29;20082;-62
2022/01/15 09:22:55;;;;;;;56.90;23.17;;;;;;;;;;4927905;29;20123;-63
2022/01/15 09:25:23;;;;;;;52.85;23.20;;;;;;;;;;4925024;29;20076;-62
2022/01/15 09:30:34;;;;;;;50.38;23.45;;;;;;;;;;4924605;29;20413;-61
2022/01/15 09:33:03;;;;;;;51.92;20.90;;;;;;;;;;4928550;29;20071;-63
2022/01/15 09:35:30;;;;;;;40.88;17.92;;;;;;;;;;4929760;29;20052;-63
2022/01/15 09:37:57;;;;;;;42.00;18.58;;;;;;;;;;4923865;29;20075;-63
2022/01/15 09:40:26;;;;;;;42.58;20.02;;;;;;;;;;4927929;29;20857;-63
2022/01/15 09:42:54;;;;;;;41.25;19.15;;;;;;;;;;4930359;29;20055;-63
2022/01/15 09:45:22;;;;;;;47.25;20.60;;;;;;;;;;4924669;29;20079;-63
2022/01/15 09:47:53;;;;;;;34.60;17.58;;;;;;;;;;4927195;29;20075;-63
2022/01/15 09:50:20;;;;;;;36.95;17.05;;;;;;;;;;4929640;29;20485;-63
2022/01/15 09:52:46;;;;;;;40.55;18.25;;;;;;;;;;4926861;29;20103;-63
2022/01/15 09:55:14;;;;;;;48.28;19.42;;;;;;;;;;4928069;29;20091;-63
2022/01/15 09:57:42;;;;;;;43.63;18.65;;;;;;;;;;4929102;29;20091;-62
2022/01/15 10:00:14;;;;;;;37.38;17.15;;;;;;;;;;4927276;29;20163;-62
2022/01/15 10:02:42;;;;;;;39.38;18.05;;;;;;;;;;4928631;29;20441;-63
2022/01/15 10:05:10;;;;;;;39.05;16.55;;;;;;;;;;4925360;29;20592;-63
2022/01/15 10:07:36;;;;;;;38.20;16.98;;;;;;;;;;4929156;29;20154;-63
2022/01/15 10:10:13;;;;;;;39.92;16.85;;;;;;;;;;4928349;29;20146;-63
2022/01/15 10:12:42;;;;;;;35.92;16.50;;;;;;;;;;4929487;29;20493;-64
2022/01/15 10:15:20;;;;;;;36.80;16.85;;;;;;;;;;4928287;29;20044;-64
2022/01/15 10:17:46;;;;;;;33.65;15.15;;;;;;;;;;4929548;29;20079;-64
2022/01/15 10:20:14;;;;;;;37.80;19.02;;;;;;;;;;4927484;29;20484;-64
2022/01/15 10:22:42;;;;;;;35.97;17.77;;;;;;;;;;4928554;29;20158;-64
2022/01/15 10:25:14;;;;;;;33.78;17.08;;;;;;;;;;4928286;29;20565;-64
2022/01/15 10:27:41;;;;;;;40.08;18.35;;;;;;;;;;4929380;29;20057;-64
2022/01/15 10:30:11;;;;;;;37.13;17.42;;;;;;;;;;4929960;29;20126;-65
2022/01/15 10:32:39;;;;;;;39.17;16.58;;;;;;;;;;4927991;29;20071;-65
2022/01/15 10:35:14;;;;;;;42.13;19.30;;;;;;;;;;4929078;29;20146;-64
2022/01/15 10:37:49;;;;;;;42.17;21.17;;;;;;;;;;4924261;29;20138;-64
2022/01/15 10:40:16;;;;;;;42.92;19.65;;;;;;;;;;4924685;29;20523;-64
2022/01/15 10:42:43;;;;;;;41.40;19.35;;;;;;;;;;4929594;29;20051;-64
2022/01/15 10:45:13;;;;;;;45.65;20.23;;;;;;;;;;4927474;29;20135;-64
2022/01/15 10:47:47;;;;;;;40.78;19.42;;;;;;;;;;4927480;29;20047;-64
2022/01/15 10:50:20;;;;;;;37.45;16.70;;;;;;;;;;4925297;29;20047;-64
2022/01/15 10:52:46;;;;;;;30.00;15.63;;;;;;;;;;4927615;29;20118;-64
2022/01/15 10:55:15;;;;;;;34.75;16.15;;;;;;;;;;4925624;29;20094;-63
2022/01/15 10:57:43;;;;;;;37.40;18.42;;;;;;;;;;4927135;29;20409;-64
2022/01/15 11:00:17;;;;;;;37.33;18.95;;;;;;;;;;4927038;29;20135;-64
2022/01/15 11:02:45;;;;;;;34.75;16.35;;;;;;;;;;4931503;29;20123;-63
2022/01/15 11:05:37;;;;;;;31.15;15.55;;;;;;;;;;4928727;29;20082;-64
2022/01/15 11:08:13;;;;;;;35.90;16.67;;;;;;;;;;4929914;29;20107;-64
2022/01/15 11:10:49;;;;;;;31.48;16.38;;;;;;;;;;4929856;29;20040;-64
2022/01/15 11:13:17;;;;;;;33.85;15.48;;;;;;;;;;4928812;29;20142;-63
2022/01/15 11:15:47;;;;;;;38.08;17.65;;;;;;;;;;4929639;29;20577;-64
2022/01/15 11:18:18;;;;;;;33.22;15.63;;;;;;;;;;4930158;29;20085;-64
2022/01/15 11:20:48;;;;;;;37.60;15.68;;;;;;;;;;4927849;29;20067;-64
2022/01/15 11:23:16;;;;;;;32.28;14.00;;;;;;;;;;4929157;29;20128;-63
2022/01/15 11:25:44;;;;;;;27.77;13.45;;;;;;;;;;4928048;29;20058;-64
2022/01/15 11:28:12;;;;;;;30.10;14.32;;;;;;;;;;4929502;29;20142;-63
2022/01/15 11:30:38;;;;;;;26.92;14.63;;;;;;;;;;4929590;29;20142;-64
2022/01/15 11:33:07;;;;;;;26.88;12.43;;;;;;;;;;4928273;29;20094;-64
2022/01/15 11:35:40;;;;;;;27.33;13.73;;;;;;;;;;4928668;29;20162;-64
2022/01/15 11:38:07;;;;;;;29.52;13.52;;;;;;;;;;4928918;29;20493;-64
2022/01/15 11:40:43;;;;;;;32.55;15.13;;;;;;;;;;4929395;29;20442;-63
2022/01/15 11:43:40;;;;;;;28.33;12.65;;;;;;;;;;4925386;29;20044;-63
2022/01/15 11:46:23;;;;;;;34.55;14.65;;;;;;;;;;4926756;29;20048;-63
2022/01/15 11:48:52;;;;;;;29.88;12.93;;;;;;;;;;4926591;29;21518;-63
2022/01/15 11:51:28;;;;;;;29.63;14.82;;;;;;;;;;4926955;29;20080;-63
2022/01/15 11:53:59;;;;;;;30.58;13.90;;;;;;;;;;4927665;29;20134;-63
2022/01/15 11:56:27;;;;;;;46.92;19.48;;;;;;;;;;4929229;29;20095;-63
2022/01/15 11:58:56;;;;;;;35.85;15.32;;;;;;;;;;4929060;29;20122;-63
2022/01/15 12:01:38;;;;;;;31.42;15.93;;;;;;;;;;4931828;29;20146;-63
2022/01/15 12:04:25;;;;;;;29.63;14.73;;;;;;;;;;4930604;29;20075;-64
2022/01/15 12:07:20;;;;;;;39.22;14.50;;;;;;;;;;4932636;29;20083;-64
2022/01/15 12:09:47;;;;;;;32.30;14.73;;;;;;;;;;4930149;29;20143;-64
2022/01/15 12:12:42;;;;;;;34.22;14.95;;;;;;;;;;4929548;29;20134;-63
2022/01/15 12:15:10;;;;;;;32.33;15.35;;;;;;;;;;4931912;29;20507;-63
2022/01/15 12:17:39;;;;;;;31.55;15.85;;;;;;;;;;4933067;29;20549;-63
2022/01/15 12:20:09;;;;;;;34.03;14.90;;;;;;;;;;4929696;29;20055;-63
2022/01/15 12:22:36;;;;;;;32.08;14.20;;;;;;;;;;4930779;29;20059;-64
2022/01/15 12:25:03;;;;;;;35.90;14.90;;;;;;;;;;4931768;29;20134;-63
2022/01/15 12:27:32;;;;;;;34.10;14.95;;;;;;;;;;4931661;29;20595;-63
2022/01/15 12:30:11;;;;;;;34.17;15.65;;;;;;;;;;4930692;29;20537;-63
2022/01/15 12:32:40;;;;;;;33.45;14.98;;;;;;;;;;4932759;29;20060;-63
2022/01/15 12:35:15;;;;;;;32.70;14.57;;;;;;;;;;4930394;29;20075;-63
2022/01/15 12:37:55;;;;;;;32.08;14.95;;;;;;;;;;4932575;29;20130;-63
2022/01/15 12:40:22;;;;;;;36.92;15.43;;;;;;;;;;4931545;29;20067;-63
2022/01/15 12:42:55;;;;;;;33.00;14.10;;;;;;;;;;4931813;29;20134;-63
2022/01/15 12:45:21;;;;;;;31.73;14.77;;;;;;;;;;4932127;29;20350;-63
2022/01/15 12:47:48;;;;;;;32.95;13.75;;;;;;;;;;4931170;29;20075;-63
2022/01/15 12:50:16;;;;;;;33.38;15.57;;;;;;;;;;4931260;29;20079;-63
2022/01/15 12:52:42;;;;;;;29.52;15.05;;;;;;;;;;4928696;29;20047;-63
2022/01/15 12:55:10;;;;;;;29.88;15.55;;;;;;;;;;4931107;29;20094;-63
2022/01/15 12:57:44;;;;;;;36.15;16.60;;;;;;;;;;4928248;29;20140;-63
2022/01/15 13:00:13;;;;;;;35.17;17.40;;;;;;;;;;4931182;29;20044;-63
2022/01/15 13:02:40;;;;;;;32.78;15.25;;;;;;;;;;4930297;29;20071;-63
2022/01/15 13:05:09;;;;;;;31.60;14.63;;;;;;;;;;4929631;29;20072;-63
2022/01/15 13:07:58;;;;;;;38.40;16.70;;;;;;;;;;4932223;29;20812;-63
2022/01/15 13:10:33;;;;;;;35.88;16.27;;;;;;;;;;4930706;29;20374;-63
2022/01/15 13:13:00;;;;;;;29.10;13.80;;;;;;;;;;4928883;29;20063;-63
2022/01/15 13:15:28;;;;;;;31.33;14.65;;;;;;;;;;4927329;29;20140;-63
2022/01/15 13:17:55;;;;;;;34.85;15.98;;;;;;;;;;4930078;29;20452;-63
2022/01/15 13:20:32;;;;;;;32.97;14.20;;;;;;;;;;4927298;29;20266;-63
2022/01/15 13:23:00;;;;;;;;;;;;;;;;;;4930497;29;20079;-63
2022/01/15 13:25:27;;;;;;;35.15;14.25;;;;;;;;;;4927462;29;20077;-64
2022/01/15 13:27:56;;;;;;;28.40;13.68;;;;;;;;;;4927130;29;20449;-62
2022/01/15 13:30:23;;;;;;;26.67;13.43;;;;;;;;;;4927198;29;20056;-63
2022/01/15 13:32:59;;;;;;;29.38;13.50;;;;;;;;;;4934957;29;20147;-63
2022/01/15 13:35:29;;;;;;;;;;;;;;;;;;4927949;29;20643;-63
2022/01/15 13:37:57;;;;;;;37.83;14.23;;;;;;;;;;4927847;29;20013;-64
2022/01/15 13:40:34;;;;;;;33.20;14.25;;;;;;;;;;4927834;29;20151;-63
2022/01/15 13:43:01;;;;;;;38.03;15.32;;;;;;;;;;4928538;29;20075;-63
2022/01/15 13:45:32;;;;;;;39.53;15.35;;;;;;;;;;4926146;29;20127;-63
2022/01/15 13:48:08;;;;;;;34.78;15.45;;;;;;;;;;4929488;29;20126;-64
2022/01/15 13:53:29;;;;;;;25.58;13.38;;;;;;;;;;4934135;29;20057;-63
2022/01/15 13:56:20;;;;;;;35.30;13.93;;;;;;;;;;4923563;29;20068;-63
2022/01/15 13:58:48;;;;;;;31.45;13.70;;;;;;;;;;4932280;29;20111;-63
2022/01/15 14:01:20;;;;;;;37.17;15.40;;;;;;;;;;4933926;29;20094;-63
2022/01/15 14:03:46;;;;;;;31.63;14.02;;;;;;;;;;4932174;29;20047;-63
2022/01/15 14:06:13;;;;;;;38.33;16.48;;;;;;;;;;4923631;29;20181;-64
2022/01/15 14:08:39;;;;;;;34.85;15.65;;;;;;;;;;4934567;29;20424;-63
2022/01/15 14:11:12;;;;;;;37.15;16.17;;;;;;;;;;4933785;29;20094;-63
2022/01/15 14:13:40;;;;;;;39.97;17.45;;;;;;;;;;4927878;29;20200;-63
2022/01/15 14:16:23;;;;;;;43.20;16.63;;;;;;;;;;4926192;29;20147;-63
2022/01/15 14:19:14;;;;;;;36.55;16.10;;;;;;;;;;4932510;29;20079;-63
2022/01/15 14:21:42;;;;;;;33.45;15.23;;;;;;;;;;4930838;29;20139;-63
2022/01/15 14:24:20;;;;;;;35.88;15.82;;;;;;;;;;4933011;29;20054;-63
2022/01/15 14:26:50;;;;;;;30.75;14.23;;;;;;;;;;4925484;29;20135;-63
2022/01/15 14:29:17;;;;;;;35.65;16.30;;;;;;;;;;4932077;29;20135;-63
2022/01/15 14:31:43;;;;;;;39.90;16.02;;;;;;;;;;4934158;29;20043;-63
2022/01/15 14:34:10;;;;;;;34.63;15.80;;;;;;;;;;4931997;29;20517;-63
2022/01/15 14:36:37;;;;;;;36.35;18.20;;;;;;;;;;4925881;29;20056;-63
2022/01/15 14:39:04;;;;;;;37.70;16.25;;;;;;;;;;4933200;29;20115;-63
2022/01/15 14:41:32;;;;;;;34.88;16.52;;;;;;;;;;4929507;29;20171;-63
2022/01/15 14:44:00;;;;;;;44.65;17.50;;;;;;;;;;4928307;29;20063;-63
2022/01/15 14:46:27;;;;;;;36.25;15.88;;;;;;;;;;4934257;29;20079;-63
2022/01/15 14:48:53;;;;;;;40.95;17.45;;;;;;;;;;4930156;29;20138;-63
2022/01/15 14:51:20;;;;;;;32.63;15.00;;;;;;;;;;4927850;29;20071;-63
2022/01/15 14:53:47;;;;;;;35.42;16.17;;;;;;;;;;4927741;29;20087;-63